createdAt,value
2018-11-14T00:08:42.637Z,10.44
2018-11-14T00:19:02.986Z,10.48
2018-11-14T00:29:20.992Z,10.48
2018-11-14T00:39:38.824Z,9.84
2018-11-14T00:49:57.384Z,9.81
2018-11-14T01:00:23.512Z,9.60
2018-11-14T01:10:41.958Z,9.52
2018-11-14T01:21:01.384Z,9.06
2018-11-14T01:31:19.583Z,8.83
2018-11-14T01:41:38.282Z,8.34
2018-11-14T01:51:56.632Z,8.43
2018-11-14T02:02:14.549Z,8.52
2018-11-14T02:12:32.725Z,7.70
2018-11-14T02:22:51.032Z,8.06
2018-11-14T02:33:09.136Z,7.81
2018-11-14T02:43:27.287Z,6.94
2018-11-14T02:53:45.292Z,6.32
2018-11-14T03:04:03.625Z,6.06
2018-11-14T03:14:21.892Z,5.67
2018-11-14T03:24:40.424Z,5.66
2018-11-14T03:34:58.284Z,4.94
2018-11-14T03:45:16.566Z,4.62
2018-11-14T03:55:35.112Z,4.42
2018-11-14T04:05:53.600Z,4.09
2018-11-14T04:16:11.645Z,4.03
2018-11-14T04:26:30.273Z,4.30
2018-11-14T04:36:48.217Z,3.91
2018-11-14T04:47:05.863Z,3.98
2018-11-14T04:57:24.016Z,4.16
2018-11-14T05:07:42.017Z,4.87
2018-11-14T05:18:00.127Z,4.82
2018-11-14T05:28:17.830Z,4.60
2018-11-14T05:38:36.046Z,4.21
2018-11-14T05:48:54.442Z,4.19
2018-11-14T05:59:12.952Z,3.63
2018-11-14T06:09:31.350Z,3.56
2018-11-14T06:19:49.240Z,3.73
2018-11-14T06:29:49.132Z,3.33
2018-11-14T06:39:48.956Z,3.28
2018-11-14T06:49:48.888Z,3.18
2018-11-14T06:59:48.950Z,3.49
2018-11-14T07:09:48.681Z,4.72
2018-11-14T07:19:48.616Z,4.15
2018-11-14T07:29:48.462Z,4.44
2018-11-14T07:39:48.319Z,4.88
2018-11-14T07:50:09.762Z,5.54
2018-11-14T08:00:27.795Z,5.72
2018-11-14T08:10:46.295Z,10.00
2018-11-14T08:21:04.944Z,11.78
2018-11-14T08:31:23.200Z,13.02
2018-11-14T08:41:41.532Z,13.42
2018-11-14T08:52:00.108Z,15.82
2018-11-14T09:02:18.138Z,16.05
2018-11-14T09:12:36.351Z,17.80
2018-11-14T09:22:54.209Z,16.84
2018-11-14T09:33:12.191Z,17.32
2018-11-14T09:43:30.176Z,15.90
2018-11-14T09:53:48.429Z,18.91
2018-11-14T10:04:08.387Z,16.56
2018-11-14T10:14:27.065Z,18.22
2018-11-14T10:24:45.368Z,18.08
2018-11-14T10:35:03.424Z,16.23
2018-11-14T10:45:23.011Z,16.94
2018-11-14T10:55:41.303Z,15.48
2018-11-14T11:06:17.363Z,16.26
2018-11-14T11:16:35.215Z,18.01
2018-11-14T11:26:54.382Z,16.69
2018-11-14T11:37:12.128Z,17.68
2018-11-14T11:47:30.677Z,17.66
2018-11-14T11:57:48.749Z,16.79
2018-11-14T12:08:06.663Z,16.41
2018-11-14T12:18:24.488Z,14.70
2018-11-14T12:28:42.530Z,15.70
2018-11-14T12:39:00.320Z,18.55
2018-11-14T12:49:18.502Z,18.19
2018-11-14T12:59:37.085Z,20.65
2018-11-14T13:09:55.380Z,22.85
2018-11-14T13:20:15.787Z,23.67
2018-11-14T13:30:33.723Z,22.25
2018-11-14T13:40:52.023Z,21.26
2018-11-14T13:51:10.286Z,21.78
2018-11-14T14:01:28.648Z,15.30
2018-11-14T14:11:46.918Z,13.99
2018-11-14T14:22:05.105Z,12.76
2018-11-14T14:32:23.503Z,14.04
2018-11-14T14:42:41.823Z,12.84
2018-11-14T14:53:00.220Z,11.13
2018-11-14T15:03:18.468Z,10.21
2018-11-14T15:13:36.195Z,9.00
2018-11-14T15:23:54.540Z,8.03
2018-11-14T15:34:12.955Z,7.84
2018-11-14T15:44:31.144Z,6.60
2018-11-14T15:54:49.196Z,6.23
2018-11-14T16:05:08.991Z,5.38
2018-11-14T16:15:29.360Z,5.28
2018-11-14T16:25:47.367Z,4.77
2018-11-14T16:36:06.612Z,4.69
2018-11-14T16:46:24.918Z,4.20
2018-11-14T16:56:42.652Z,3.78
2018-11-14T17:07:01.177Z,3.65
2018-11-14T17:17:19.283Z,3.33
2018-11-14T17:27:37.384Z,3.46
2018-11-14T17:37:55.230Z,2.96
2018-11-14T17:48:13.534Z,3.07
2018-11-14T17:58:31.543Z,3.04
2018-11-14T18:08:49.544Z,2.08
2018-11-14T18:19:08.273Z,2.19
2018-11-14T18:29:26.385Z,2.14
2018-11-14T18:39:44.389Z,1.72
2018-11-14T18:50:02.341Z,1.75
2018-11-14T19:00:32.011Z,1.58
2018-11-14T19:10:50.379Z,1.37
2018-11-14T19:21:09.233Z,1.08
2018-11-14T19:31:27.602Z,1.24
2018-11-14T19:41:50.355Z,0.96
2018-11-14T19:52:09.434Z,1.07
2018-11-14T20:02:27.777Z,0.70
2018-11-14T20:12:46.930Z,0.85
2018-11-14T20:23:06.030Z,1.08
2018-11-14T20:33:24.850Z,0.49
2018-11-14T20:43:43.245Z,0.73
2018-11-14T20:54:04.808Z,0.34
2018-11-14T21:04:22.930Z,0.62
2018-11-14T21:14:41.558Z,0.19
2018-11-14T21:25:00.494Z,-0.04
2018-11-14T21:35:23.987Z,0.05
2018-11-14T21:45:42.868Z,-0.37
2018-11-14T21:56:01.350Z,-0.17
2018-11-14T22:06:19.650Z,-0.24
2018-11-14T22:16:38.690Z,-0.14
2018-11-14T22:26:57.062Z,-0.63
2018-11-14T22:37:16.014Z,-0.68
2018-11-14T22:47:41.628Z,-0.40
2018-11-14T22:58:00.010Z,-0.65
2018-11-14T23:08:18.065Z,-0.65
2018-11-14T23:18:36.892Z,-0.79
2018-11-14T23:28:55.040Z,-1.33
2018-11-14T23:39:14.653Z,-1.07
2018-11-14T23:49:34.502Z,-1.54
2018-11-14T23:59:53.246Z,-1.62
